sensor_id;sensor_type;location;lat;lon;timestamp;temperature;humidity
24458;DHT22;12629;50.860;5.714;2022-09-30T00:02:08;7.80;99.90
24458;DHT22;12629;50.860;5.714;2022-09-30T00:04:37;7.80;99.90
24458;DHT22;12629;50.860;5.714;2022-09-30T00:07:04;7.70;99.90
24458;DHT22;12629;50.860;5.714;2022-09-30T00:09:33;7.70;99.90
24458;DHT22;12629;50.860;5.714;2022-09-30T00:12:00;7.70;99.90
24458;DHT22;12629;50.860;5.714;2022-09-30T00:14:27;7.70;99.90
24458;DHT22;12629;50.860;5.714;2022-09-30T00:16:55;7.70;99.90
24458;DHT22;12629;50.860;5.714;2022-09-30T00:19:22;7.70;99.90
24458;DHT22;12629;50.860;5.714;2022-09-30T00:21:49;7.60;99.90
24458;DHT22;12629;50.860;5.714;2022-09-30T00:24:17;7.60;99.90
24458;DHT22;12629;50.860;5.714;2022-09-30T00:26:46;7.70;99.90
24458;DHT22;12629;50.860;5.714;2022-09-30T00:29:14;7.60;99.90
24458;DHT22;12629;50.860;5.714;2022-09-30T00:31:41;7.50;99.90
24458;DHT22;12629;50.860;5.714;2022-09-30T00:34:08;7.60;99.90
24458;DHT22;12629;50.860;5.714;2022-09-30T00:36:40;7.60;99.90
24458;DHT22;12629;50.860;5.714;2022-09-30T00:39:09;7.60;99.90
24458;DHT22;12629;50.860;5.714;2022-09-30T00:41:37;7.60;99.90
24458;DHT22;12629;50.860;5.714;2022-09-30T00:47:28;7.60;99.90
24458;DHT22;12629;50.860;5.714;2022-09-30T00:49:59;7.50;99.90
24458;DHT22;12629;50.860;5.714;2022-09-30T00:52:27;7.50;99.90
24458;DHT22;12629;50.860;5.714;2022-09-30T00:54:56;7.50;99.90
24458;DHT22;12629;50.860;5.714;2022-09-30T00:57:27;7.50;99.90
24458;DHT22;12629;50.860;5.714;2022-09-30T00:59:54;7.50;99.90
24458;DHT22;12629;50.860;5.714;2022-09-30T01:02:23;7.50;99.90
24458;DHT22;12629;50.860;5.714;2022-09-30T01:04:50;7.40;99.90
24458;DHT22;12629;50.860;5.714;2022-09-30T01:07:21;7.40;99.90
24458;DHT22;12629;50.860;5.714;2022-09-30T01:09:49;7.50;99.90
24458;DHT22;12629;50.860;5.714;2022-09-30T01:12:20;7.40;99.90
24458;DHT22;12629;50.860;5.714;2022-09-30T01:14:50;7.50;99.90
24458;DHT22;12629;50.860;5.714;2022-09-30T01:17:29;7.60;99.90
24458;DHT22;12629;50.860;5.714;2022-09-30T01:23:36;7.40;99.90
24458;DHT22;12629;50.860;5.714;2022-09-30T01:26:31;7.40;99.90
24458;DHT22;12629;50.860;5.714;2022-09-30T01:29:21;7.40;99.90
24458;DHT22;12629;50.860;5.714;2022-09-30T01:32:02;7.30;99.90
24458;DHT22;12629;50.860;5.714;2022-09-30T01:34:40;7.30;99.90
24458;DHT22;12629;50.860;5.714;2022-09-30T01:37:20;7.30;99.90
24458;DHT22;12629;50.860;5.714;2022-09-30T01:39:55;7.20;99.90
24458;DHT22;12629;50.860;5.714;2022-09-30T01:42:34;7.20;99.90
24458;DHT22;12629;50.860;5.714;2022-09-30T01:45:09;7.10;99.90
24458;DHT22;12629;50.860;5.714;2022-09-30T01:47:43;7.10;99.90
24458;DHT22;12629;50.860;5.714;2022-09-30T01:50:17;7.20;99.90
24458;DHT22;12629;50.860;5.714;2022-09-30T01:52:51;7.20;99.90
24458;DHT22;12629;50.860;5.714;2022-09-30T01:55:28;7.20;99.90
24458;DHT22;12629;50.860;5.714;2022-09-30T01:57:59;7.20;99.90
24458;DHT22;12629;50.860;5.714;2022-09-30T02:00:30;7.20;99.90
24458;DHT22;12629;50.860;5.714;2022-09-30T02:03:04;7.20;99.90
24458;DHT22;12629;50.860;5.714;2022-09-30T02:05:38;7.20;99.90
24458;DHT22;12629;50.860;5.714;2022-09-30T02:08:12;7.10;99.90
24458;DHT22;12629;50.860;5.714;2022-09-30T02:10:44;7.00;99.90
24458;DHT22;12629;50.860;5.714;2022-09-30T02:13:17;7.10;99.90
24458;DHT22;12629;50.860;5.714;2022-09-30T02:15:50;7.10;99.90
24458;DHT22;12629;50.860;5.714;2022-09-30T02:18:25;7.10;99.90
24458;DHT22;12629;50.860;5.714;2022-09-30T02:20:59;7.10;99.90
24458;DHT22;12629;50.860;5.714;2022-09-30T02:23:29;7.00;99.90
24458;DHT22;12629;50.860;5.714;2022-09-30T02:26:00;7.00;99.90
24458;DHT22;12629;50.860;5.714;2022-09-30T02:28:31;7.00;99.90
24458;DHT22;12629;50.860;5.714;2022-09-30T02:31:01;7.00;99.90
24458;DHT22;12629;50.860;5.714;2022-09-30T02:33:33;7.00;99.90
24458;DHT22;12629;50.860;5.714;2022-09-30T02:36:04;7.00;99.90
24458;DHT22;12629;50.860;5.714;2022-09-30T02:38:35;6.90;99.90
24458;DHT22;12629;50.860;5.714;2022-09-30T02:41:07;6.90;99.90
24458;DHT22;12629;50.860;5.714;2022-09-30T02:43:35;6.90;99.90
24458;DHT22;12629;50.860;5.714;2022-09-30T02:46:11;6.90;99.90
24458;DHT22;12629;50.860;5.714;2022-09-30T02:48:47;6.90;99.90
24458;DHT22;12629;50.860;5.714;2022-09-30T02:51:21;6.90;99.90
24458;DHT22;12629;50.860;5.714;2022-09-30T02:53:56;6.80;99.90
24458;DHT22;12629;50.860;5.714;2022-09-30T02:56:35;6.80;99.90
24458;DHT22;12629;50.860;5.714;2022-09-30T02:59:06;6.80;99.90
24458;DHT22;12629;50.860;5.714;2022-09-30T03:01:34;6.70;99.90
24458;DHT22;12629;50.860;5.714;2022-09-30T03:04:10;6.70;99.90
24458;DHT22;12629;50.860;5.714;2022-09-30T03:06:38;6.70;99.90
24458;DHT22;12629;50.860;5.714;2022-09-30T03:09:06;6.70;99.90
24458;DHT22;12629;50.860;5.714;2022-09-30T03:11:34;6.80;99.90
24458;DHT22;12629;50.860;5.714;2022-09-30T03:14:27;6.80;99.90
24458;DHT22;12629;50.860;5.714;2022-09-30T03:17:12;6.90;99.90
24458;DHT22;12629;50.860;5.714;2022-09-30T03:19:58;7.00;99.90
24458;DHT22;12629;50.860;5.714;2022-09-30T03:22:42;6.90;99.90
24458;DHT22;12629;50.860;5.714;2022-09-30T03:25:26;6.90;99.90
24458;DHT22;12629;50.860;5.714;2022-09-30T03:28:06;6.80;99.90
24458;DHT22;12629;50.860;5.714;2022-09-30T03:30:44;6.80;99.90
24458;DHT22;12629;50.860;5.714;2022-09-30T03:33:18;6.80;99.90
24458;DHT22;12629;50.860;5.714;2022-09-30T03:35:56;6.70;99.90
24458;DHT22;12629;50.860;5.714;2022-09-30T03:38:33;6.70;99.90
24458;DHT22;12629;50.860;5.714;2022-09-30T03:41:07;6.70;99.90
24458;DHT22;12629;50.860;5.714;2022-09-30T03:43:41;6.60;99.90
24458;DHT22;12629;50.860;5.714;2022-09-30T03:46:17;6.60;99.90
24458;DHT22;12629;50.860;5.714;2022-09-30T03:48:48;6.50;99.90
24458;DHT22;12629;50.860;5.714;2022-09-30T03:51:18;6.50;99.90
24458;DHT22;12629;50.860;5.714;2022-09-30T03:53:47;6.50;99.90
24458;DHT22;12629;50.860;5.714;2022-09-30T03:56:14;6.60;99.90
24458;DHT22;12629;50.860;5.714;2022-09-30T03:58:42;6.50;99.90
24458;DHT22;12629;50.860;5.714;2022-09-30T04:01:16;6.60;99.90
24458;DHT22;12629;50.860;5.714;2022-09-30T04:03:46;6.50;99.90
24458;DHT22;12629;50.860;5.714;2022-09-30T04:06:13;6.50;99.90
24458;DHT22;12629;50.860;5.714;2022-09-30T04:08:42;6.50;99.90
24458;DHT22;12629;50.860;5.714;2022-09-30T04:11:10;6.60;99.90
24458;DHT22;12629;50.860;5.714;2022-09-30T04:13:37;6.60;99.90
24458;DHT22;12629;50.860;5.714;2022-09-30T04:16:05;6.60;99.90
24458;DHT22;12629;50.860;5.714;2022-09-30T04:18:34;6.60;99.90
24458;DHT22;12629;50.860;5.714;2022-09-30T04:21:04;6.70;99.90
24458;DHT22;12629;50.860;5.714;2022-09-30T04:23:34;6.70;99.90
24458;DHT22;12629;50.860;5.714;2022-09-30T04:26:04;6.70;99.90
24458;DHT22;12629;50.860;5.714;2022-09-30T04:28:33;6.70;99.90
24458;DHT22;12629;50.860;5.714;2022-09-30T04:31:01;6.70;99.90
24458;DHT22;12629;50.860;5.714;2022-09-30T04:33:29;6.60;99.90
24458;DHT22;12629;50.860;5.714;2022-09-30T04:35:57;6.60;99.90
24458;DHT22;12629;50.860;5.714;2022-09-30T04:38:25;6.60;99.90
24458;DHT22;12629;50.860;5.714;2022-09-30T04:40:53;6.50;99.90
24458;DHT22;12629;50.860;5.714;2022-09-30T04:43:22;6.50;99.90
24458;DHT22;12629;50.860;5.714;2022-09-30T04:45:50;6.40;99.90
24458;DHT22;12629;50.860;5.714;2022-09-30T04:48:18;6.50;99.90
24458;DHT22;12629;50.860;5.714;2022-09-30T04:50:46;6.60;99.90
24458;DHT22;12629;50.860;5.714;2022-09-30T04:53:13;6.50;99.90
24458;DHT22;12629;50.860;5.714;2022-09-30T04:55:41;6.40;99.90
24458;DHT22;12629;50.860;5.714;2022-09-30T04:58:08;6.50;99.90
24458;DHT22;12629;50.860;5.714;2022-09-30T05:00:37;6.40;99.90
24458;DHT22;12629;50.860;5.714;2022-09-30T05:03:05;6.60;99.90
24458;DHT22;12629;50.860;5.714;2022-09-30T05:05:32;6.60;99.90
24458;DHT22;12629;50.860;5.714;2022-09-30T05:08:00;6.60;99.90
24458;DHT22;12629;50.860;5.714;2022-09-30T05:10:28;6.60;99.90
24458;DHT22;12629;50.860;5.714;2022-09-30T05:12:56;6.60;99.90
24458;DHT22;12629;50.860;5.714;2022-09-30T05:15:24;6.60;99.90
24458;DHT22;12629;50.860;5.714;2022-09-30T05:17:53;6.60;99.90
24458;DHT22;12629;50.860;5.714;2022-09-30T05:20:20;6.60;99.90
24458;DHT22;12629;50.860;5.714;2022-09-30T05:22:53;6.60;99.90
24458;DHT22;12629;50.860;5.714;2022-09-30T05:25:20;6.60;99.90
24458;DHT22;12629;50.860;5.714;2022-09-30T05:27:48;6.70;99.90
24458;DHT22;12629;50.860;5.714;2022-09-30T05:30:16;6.70;99.90
24458;DHT22;12629;50.860;5.714;2022-09-30T05:32:43;6.70;99.90
24458;DHT22;12629;50.860;5.714;2022-09-30T05:35:12;6.70;99.90
24458;DHT22;12629;50.860;5.714;2022-09-30T05:37:39;6.70;99.90
24458;DHT22;12629;50.860;5.714;2022-09-30T05:40:08;6.60;99.90
24458;DHT22;12629;50.860;5.714;2022-09-30T05:42:35;6.60;99.90
24458;DHT22;12629;50.860;5.714;2022-09-30T05:45:03;6.60;99.90
24458;DHT22;12629;50.860;5.714;2022-09-30T05:47:31;6.60;99.90
24458;DHT22;12629;50.860;5.714;2022-09-30T05:49:58;6.70;99.90
24458;DHT22;12629;50.860;5.714;2022-09-30T05:52:27;6.70;99.90
24458;DHT22;12629;50.860;5.714;2022-09-30T05:54:54;6.70;99.90
24458;DHT22;12629;50.860;5.714;2022-09-30T05:57:26;6.70;99.90
24458;DHT22;12629;50.860;5.714;2022-09-30T05:59:53;6.70;99.90
24458;DHT22;12629;50.860;5.714;2022-09-30T06:02:22;6.70;99.90
24458;DHT22;12629;50.860;5.714;2022-09-30T06:04:49;6.70;99.90
24458;DHT22;12629;50.860;5.714;2022-09-30T06:07:17;6.70;99.90
24458;DHT22;12629;50.860;5.714;2022-09-30T06:09:45;6.60;99.90
24458;DHT22;12629;50.860;5.714;2022-09-30T06:12:13;6.70;99.90
24458;DHT22;12629;50.860;5.714;2022-09-30T06:14:40;6.70;99.90
24458;DHT22;12629;50.860;5.714;2022-09-30T06:17:08;6.70;99.90
24458;DHT22;12629;50.860;5.714;2022-09-30T06:19:35;6.80;99.90
24458;DHT22;12629;50.860;5.714;2022-09-30T06:22:02;6.80;99.90
24458;DHT22;12629;50.860;5.714;2022-09-30T06:24:30;6.80;99.90
24458;DHT22;12629;50.860;5.714;2022-09-30T06:26:58;6.90;99.90
24458;DHT22;12629;50.860;5.714;2022-09-30T06:29:26;6.90;99.90
24458;DHT22;12629;50.860;5.714;2022-09-30T06:31:53;6.90;99.90
24458;DHT22;12629;50.860;5.714;2022-09-30T06:34:20;6.90;99.90
24458;DHT22;12629;50.860;5.714;2022-09-30T06:36:48;7.00;99.90
24458;DHT22;12629;50.860;5.714;2022-09-30T06:39:15;7.10;99.90
24458;DHT22;12629;50.860;5.714;2022-09-30T06:41:43;7.10;99.90
24458;DHT22;12629;50.860;5.714;2022-09-30T06:44:13;7.50;99.90
24458;DHT22;12629;50.860;5.714;2022-09-30T06:46:40;8.00;99.90
24458;DHT22;12629;50.860;5.714;2022-09-30T06:49:07;8.50;99.90
24458;DHT22;12629;50.860;5.714;2022-09-30T06:51:35;8.90;99.90
24458;DHT22;12629;50.860;5.714;2022-09-30T06:54:02;9.10;99.90
24458;DHT22;12629;50.860;5.714;2022-09-30T06:56:29;9.40;99.90
24458;DHT22;12629;50.860;5.714;2022-09-30T06:58:57;9.80;99.90
24458;DHT22;12629;50.860;5.714;2022-09-30T07:01:26;9.80;99.90
24458;DHT22;12629;50.860;5.714;2022-09-30T07:03:54;9.70;99.90
24458;DHT22;12629;50.860;5.714;2022-09-30T07:06:23;9.70;99.90
24458;DHT22;12629;50.860;5.714;2022-09-30T07:08:51;9.80;99.90
24458;DHT22;12629;50.860;5.714;2022-09-30T07:11:19;9.80;99.90
24458;DHT22;12629;50.860;5.714;2022-09-30T07:13:47;9.70;99.90
24458;DHT22;12629;50.860;5.714;2022-09-30T07:16:16;9.60;99.90
24458;DHT22;12629;50.860;5.714;2022-09-30T07:18:44;9.60;99.90
24458;DHT22;12629;50.860;5.714;2022-09-30T07:21:13;9.60;99.90
24458;DHT22;12629;50.860;5.714;2022-09-30T07:23:41;9.80;99.90
24458;DHT22;12629;50.860;5.714;2022-09-30T07:26:13;10.10;99.90
24458;DHT22;12629;50.860;5.714;2022-09-30T07:28:41;10.40;99.90
24458;DHT22;12629;50.860;5.714;2022-09-30T07:31:09;10.70;99.90
24458;DHT22;12629;50.860;5.714;2022-09-30T07:33:38;11.00;99.90
24458;DHT22;12629;50.860;5.714;2022-09-30T07:36:07;11.00;99.90
24458;DHT22;12629;50.860;5.714;2022-09-30T07:38:37;11.10;99.90
24458;DHT22;12629;50.860;5.714;2022-09-30T07:41:07;10.90;99.90
